Skip Navigation LinksHome page > Weather > Current weather Skip Navigation Links

Current Weather

Alert, Nunavut

For information only: do not use for flight planning or navigation.
Latest weather
Observation time Sunday, May 1, 2016 7:00 AM EDT
Local time Sunday, May 1, 2016 7:43 AM EDT
Flight conditions Visual Meteorological Conditions
Winds
Wind direction West-Northwest (300°)
Wind speed 8 mph
Visibility 15 mi.
Sky condition
Ceiling unlimited
Cloud layer few clouds 7,000 ft.
Temperature 1°F
Dewpoint -4°F
Altimeter 30.27 in.Hg
Derived measurements
Relative humidity 77%
Wind chill -12°F
Density altitude -4451 ft.
Sea-level pressure 30.28 in.Hg
METAR CYLT 011100Z 30007KT 15SM FEW070 M17/M20 A3027 RMK AC2 SLP255

Settings

Location code

InnerDrive.Weather 4.0.5722.1 Release CLR 4.0.30319.34209
Copyright ©2015 Inner Drive Technology. All rights reserved. Portions Copyright ©1986-2015 David Braverman.

Find weather

Site navigation


Skip Navigation Links

Place info

Page info

PayPal - The safer, easier way to pay online!

Return home.

Copyright ©2016 Inner Drive Technology. Purveyors of fine, hand-crafted computer software. Page printed 2016-05-01T11:43:39 UTC.